createdAt,value
2018-03-17T00:01:17.081Z,-2.50
2018-03-17T00:03:44.562Z,-2.60
2018-03-17T00:06:12.945Z,-2.60
2018-03-17T00:08:40.486Z,-2.60
2018-03-17T00:11:07.978Z,-2.60
2018-03-17T00:13:35.482Z,-2.60
2018-03-17T00:16:02.965Z,-2.70
2018-03-17T00:18:30.447Z,-2.70
2018-03-17T00:20:57.971Z,-2.60
2018-03-17T00:23:25.464Z,-2.60
2018-03-17T00:25:52.950Z,-2.60
2018-03-17T00:28:20.596Z,-2.60
2018-03-17T00:30:48.082Z,-2.60
2018-03-17T00:33:15.557Z,-2.60
2018-03-17T00:35:43.058Z,-2.60
2018-03-17T00:38:10.547Z,-2.60
2018-03-17T00:40:38.183Z,-2.60
2018-03-17T00:43:05.667Z,-2.70
2018-03-17T00:45:33.150Z,-2.70
2018-03-17T00:48:00.666Z,-2.70
2018-03-17T00:50:28.161Z,-2.70
2018-03-17T00:52:55.648Z,-2.70
2018-03-17T00:55:23.932Z,-2.70
2018-03-17T00:57:51.426Z,-2.80
2018-03-17T01:00:18.914Z,-2.70
2018-03-17T01:02:46.456Z,-2.70
2018-03-17T01:05:13.946Z,-2.70
2018-03-17T01:07:42.206Z,-2.70
2018-03-17T01:10:09.846Z,-2.70
2018-03-17T01:12:37.331Z,-2.70
2018-03-17T01:15:04.815Z,-2.80
2018-03-17T01:17:32.322Z,-2.80
2018-03-17T01:19:59.817Z,-2.90
2018-03-17T01:22:28.086Z,-2.90
2018-03-17T01:24:56.338Z,-2.80
2018-03-17T01:27:23.838Z,-2.80
2018-03-17T01:29:51.328Z,-2.80
2018-03-17T01:32:18.805Z,-2.80
2018-03-17T01:34:46.310Z,-2.90
2018-03-17T01:37:13.800Z,-3.00
2018-03-17T01:39:41.288Z,-3.00
2018-03-17T01:42:08.805Z,-3.00
2018-03-17T01:44:36.294Z,-3.00
2018-03-17T01:47:03.939Z,-3.00
2018-03-17T01:49:31.424Z,-3.00
2018-03-17T01:51:58.909Z,-3.10
2018-03-17T01:54:31.949Z,-2.90
2018-03-17T01:56:59.450Z,-2.90
2018-03-17T01:59:27.698Z,-3.10
2018-03-17T02:01:55.213Z,-3.10
2018-03-17T02:04:22.711Z,-3.10
2018-03-17T02:06:50.194Z,-3.20
2018-03-17T02:09:18.478Z,-3.10
2018-03-17T02:11:45.960Z,-3.20
2018-03-17T02:14:13.450Z,-3.20
2018-03-17T02:16:40.954Z,-3.20
2018-03-17T02:19:09.217Z,-3.10
2018-03-17T02:21:37.494Z,-3.10
2018-03-17T02:24:05.745Z,-3.20
2018-03-17T02:26:33.279Z,-3.20
2018-03-17T02:29:00.787Z,-3.20
2018-03-17T02:31:29.052Z,-3.20
2018-03-17T02:33:57.333Z,-3.20
2018-03-17T02:36:25.583Z,-3.20
2018-03-17T02:38:53.083Z,-3.10
2018-03-17T02:41:21.547Z,-3.10
2018-03-17T02:43:49.809Z,-3.10
2018-03-17T02:46:17.298Z,-3.20
2018-03-17T02:48:44.934Z,-3.10
2018-03-17T02:51:12.415Z,-3.10
2018-03-17T02:53:40.666Z,-3.10
2018-03-17T02:56:08.190Z,-3.10
2018-03-17T02:58:35.679Z,-3.20
2018-03-17T03:01:03.162Z,-3.20
2018-03-17T03:03:30.673Z,-3.10
2018-03-17T03:05:58.156Z,-3.10
2018-03-17T03:08:25.633Z,-3.20
2018-03-17T03:10:53.901Z,-3.30
2018-03-17T03:13:22.151Z,-3.30
2018-03-17T03:15:49.638Z,-3.20
2018-03-17T03:18:17.923Z,-3.30
2018-03-17T03:20:45.430Z,-3.30
2018-03-17T03:23:12.950Z,-3.30
2018-03-17T03:25:40.454Z,-3.30
2018-03-17T03:28:07.941Z,-3.40
2018-03-17T03:30:36.188Z,-3.40
2018-03-17T03:33:03.685Z,-3.40
2018-03-17T03:35:31.171Z,-3.50
2018-03-17T03:37:58.658Z,-3.50
2018-03-17T03:40:26.154Z,-3.50
2018-03-17T03:42:54.403Z,-3.70
2018-03-17T03:45:22.690Z,-3.70
2018-03-17T03:47:50.941Z,-3.70
2018-03-17T03:50:20.047Z,-3.80
2018-03-17T03:52:47.721Z,-3.80
2018-03-17T03:55:15.972Z,-3.90
2018-03-17T03:57:43.458Z,-3.90
2018-03-17T04:00:11.926Z,-3.90
2018-03-17T04:02:39.418Z,-3.90
2018-03-17T04:05:06.919Z,-3.90
2018-03-17T04:07:34.440Z,-3.90
2018-03-17T04:10:01.955Z,-3.90
2018-03-17T04:12:29.466Z,-3.90
2018-03-17T04:14:56.986Z,-3.80
2018-03-17T04:17:25.251Z,-3.90
2018-03-17T04:19:52.733Z,-3.90
2018-03-17T04:22:20.242Z,-3.90
2018-03-17T04:24:48.495Z,-4.00
2018-03-17T04:27:16.007Z,-3.90
2018-03-17T04:29:44.267Z,-3.90
2018-03-17T04:32:11.754Z,-3.90
2018-03-17T04:34:39.270Z,-4.00
2018-03-17T04:37:06.755Z,-4.00
2018-03-17T04:39:35.014Z,-4.00
2018-03-17T04:42:02.536Z,-4.00
2018-03-17T04:44:30.019Z,-3.90
2018-03-17T04:46:57.525Z,-4.00
2018-03-17T04:49:25.019Z,-4.00
2018-03-17T04:51:52.498Z,-4.00
2018-03-17T04:54:20.023Z,-4.10
2018-03-17T04:56:47.511Z,-4.10
2018-03-17T04:59:14.995Z,-4.00
2018-03-17T05:01:43.262Z,-4.00
2018-03-17T05:04:10.755Z,-4.00
2018-03-17T05:06:38.241Z,-4.10
2018-03-17T05:09:05.746Z,-4.10
2018-03-17T05:11:33.998Z,-4.10
2018-03-17T05:14:01.487Z,-4.10
2018-03-17T05:16:28.989Z,-4.20
2018-03-17T05:18:56.472Z,-4.20
2018-03-17T05:21:23.950Z,-4.20
2018-03-17T05:23:52.226Z,-4.20
2018-03-17T05:26:20.523Z,-4.20
2018-03-17T05:28:47.975Z,-4.20
2018-03-17T05:31:15.477Z,-4.20
2018-03-17T05:33:42.967Z,-4.20
2018-03-17T05:36:11.242Z,-4.40
2018-03-17T05:38:39.522Z,-4.30
2018-03-17T05:41:07.771Z,-4.40
2018-03-17T05:43:35.255Z,-4.40
2018-03-17T05:46:03.529Z,-4.30
2018-03-17T05:48:31.787Z,-4.30
2018-03-17T05:50:59.270Z,-4.30
2018-03-17T05:53:27.538Z,-4.30
2018-03-17T05:55:55.790Z,-4.40
2018-03-17T05:58:23.277Z,-4.40
2018-03-17T06:00:51.756Z,-4.40
2018-03-17T06:03:20.006Z,-4.40
2018-03-17T06:05:47.524Z,-4.30
2018-03-17T06:08:15.038Z,-4.40
2018-03-17T06:10:43.301Z,-4.30
2018-03-17T06:13:10.796Z,-4.40
2018-03-17T06:15:38.311Z,-4.40
2018-03-17T06:18:05.819Z,-4.50
2018-03-17T06:20:33.304Z,-4.40
2018-03-17T06:23:00.810Z,-4.40
2018-03-17T06:25:29.085Z,-4.60
2018-03-17T06:27:57.346Z,-4.50
2018-03-17T06:30:24.862Z,-4.60
2018-03-17T06:32:52.363Z,-4.60
2018-03-17T06:35:19.846Z,-4.50
2018-03-17T06:37:48.120Z,-4.60
2018-03-17T06:40:16.371Z,-4.60
2018-03-17T06:42:43.862Z,-4.60
2018-03-17T06:45:11.374Z,-4.60
2018-03-17T06:47:38.879Z,-4.60
2018-03-17T06:50:06.373Z,-4.70
2018-03-17T06:52:33.893Z,-4.60
2018-03-17T06:55:01.390Z,-4.50
2018-03-17T06:57:29.181Z,-4.60
2018-03-17T06:59:56.719Z,-4.50
2018-03-17T07:02:24.207Z,-4.50
2018-03-17T07:04:52.471Z,-4.50
2018-03-17T07:07:19.980Z,-4.60
2018-03-17T07:09:47.476Z,-4.60
2018-03-17T07:12:14.994Z,-4.60
2018-03-17T07:14:42.514Z,-4.50
2018-03-17T07:17:10.783Z,-4.50
2018-03-17T07:19:38.285Z,-4.50
2018-03-17T07:22:06.051Z,-4.60
2018-03-17T07:24:33.543Z,-4.60
2018-03-17T07:27:01.026Z,-4.60
2018-03-17T07:29:29.303Z,-4.60
2018-03-17T07:31:57.602Z,-4.70
2018-03-17T07:34:25.147Z,-4.80
2018-03-17T07:36:53.409Z,-4.70
2018-03-17T07:39:21.698Z,-4.70
2018-03-17T07:41:49.995Z,-4.80
2018-03-17T07:44:17.547Z,-4.80
2018-03-17T07:46:45.048Z,-4.80
2018-03-17T07:49:12.560Z,-4.80
2018-03-17T07:51:40.047Z,-4.80
2018-03-17T07:54:07.552Z,-4.90
2018-03-17T07:56:35.834Z,-4.90
2018-03-17T07:59:04.095Z,-4.90
2018-03-17T08:01:31.578Z,-5.00
2018-03-17T08:03:59.846Z,-5.00
2018-03-17T08:06:28.105Z,-5.00
2018-03-17T08:08:55.632Z,-5.10
2018-03-17T08:11:23.127Z,-5.10
2018-03-17T08:13:50.638Z,-5.20
2018-03-17T08:16:18.126Z,-5.10
2018-03-17T08:18:45.638Z,-5.10
2018-03-17T08:21:13.123Z,-5.10
2018-03-17T08:23:41.026Z,-5.10
2018-03-17T08:26:08.531Z,-5.10
2018-03-17T08:28:36.018Z,-5.10
2018-03-17T08:31:03.607Z,-5.20
2018-03-17T08:33:31.054Z,-5.00
2018-03-17T08:35:58.534Z,-5.10
2018-03-17T08:38:26.059Z,-5.00
2018-03-17T08:40:53.569Z,-5.00
2018-03-17T08:43:21.059Z,-5.10
2018-03-17T08:45:48.558Z,-5.10
2018-03-17T08:48:16.808Z,-5.00
2018-03-17T08:50:44.305Z,-5.00
2018-03-17T08:53:11.814Z,-5.00
2018-03-17T08:55:39.298Z,-5.00
2018-03-17T08:58:07.571Z,-5.00
2018-03-17T09:00:35.826Z,-5.00
2018-03-17T09:03:03.311Z,-5.00
2018-03-17T09:05:31.718Z,-4.90
2018-03-17T09:07:59.233Z,-4.90
2018-03-17T09:10:26.737Z,-4.90
2018-03-17T09:12:54.246Z,-4.80
2018-03-17T09:15:21.726Z,-4.70
2018-03-17T09:17:49.997Z,-4.70
2018-03-17T09:20:18.262Z,-4.70
2018-03-17T09:22:46.514Z,-4.80
2018-03-17T09:25:14.006Z,-4.80
2018-03-17T09:27:42.396Z,-4.80
2018-03-17T09:30:09.886Z,-4.80
2018-03-17T09:32:37.373Z,-4.90
2018-03-17T09:35:04.886Z,-4.80
2018-03-17T09:37:32.405Z,-4.50
2018-03-17T09:39:59.946Z,-4.60
2018-03-17T09:42:27.449Z,-4.60
2018-03-17T09:44:55.566Z,-4.60
2018-03-17T09:47:23.075Z,-4.50
2018-03-17T09:49:50.570Z,-4.50
2018-03-17T09:52:18.897Z,-4.50
2018-03-17T09:54:46.351Z,-4.50
2018-03-17T09:57:14.607Z,-4.40
2018-03-17T09:59:42.111Z,-4.40
2018-03-17T10:02:09.866Z,-4.40
2018-03-17T10:04:37.350Z,-4.40
2018-03-17T10:07:04.844Z,-4.40
2018-03-17T10:09:33.149Z,-4.50
2018-03-17T10:12:00.648Z,-4.50
2018-03-17T10:14:28.142Z,-4.20
2018-03-17T10:16:55.683Z,-4.10
2018-03-17T10:19:23.191Z,-4.10
2018-03-17T10:21:50.678Z,-4.00
2018-03-17T10:24:18.186Z,-4.10
2018-03-17T10:26:46.430Z,-4.10
2018-03-17T10:29:13.916Z,-4.10
2018-03-17T10:31:42.185Z,-4.10
2018-03-17T10:34:10.479Z,-4.20
2018-03-17T10:36:37.943Z,-4.20
2018-03-17T10:39:05.454Z,-4.30
2018-03-17T10:41:32.934Z,-4.10
2018-03-17T10:44:01.194Z,-4.10
2018-03-17T10:46:28.699Z,-4.10
2018-03-17T10:48:56.173Z,-4.10
2018-03-17T10:51:23.667Z,-3.90
2018-03-17T10:53:51.342Z,-4.00
2018-03-17T10:56:19.590Z,-4.10
2018-03-17T10:58:47.083Z,-4.10
2018-03-17T11:01:20.264Z,-4.00
2018-03-17T11:03:47.753Z,-3.90
2018-03-17T11:06:15.252Z,-4.00
2018-03-17T11:08:42.947Z,-4.20
2018-03-17T11:11:11.195Z,-4.00
2018-03-17T11:13:38.679Z,-4.00
2018-03-17T11:16:07.158Z,-4.10
2018-03-17T11:18:35.410Z,-4.20
2018-03-17T11:21:02.907Z,-4.30
2018-03-17T11:23:30.419Z,-4.10
2018-03-17T11:25:57.903Z,-4.00
2018-03-17T11:28:26.164Z,-4.10
2018-03-17T11:30:53.671Z,-4.20
2018-03-17T11:33:21.923Z,-4.00
2018-03-17T11:35:50.206Z,-4.00
2018-03-17T11:38:18.370Z,-4.00
2018-03-17T11:40:46.618Z,-4.20
2018-03-17T11:43:14.120Z,-4.20
2018-03-17T11:45:41.602Z,-4.30
2018-03-17T11:48:09.118Z,-4.40
2018-03-17T11:50:37.369Z,-4.30
2018-03-17T11:53:04.870Z,-4.30
2018-03-17T11:55:32.405Z,-4.40
2018-03-17T11:58:00.695Z,-4.70
2018-03-17T12:00:28.204Z,-4.70
2018-03-17T12:02:56.530Z,-4.70
2018-03-17T12:05:24.007Z,-4.80
2018-03-17T12:07:51.514Z,-4.60
2018-03-17T12:10:19.060Z,-4.50
2018-03-17T12:12:46.551Z,-4.50
2018-03-17T12:15:14.815Z,-4.50
2018-03-17T12:17:43.110Z,-4.40
2018-03-17T12:20:11.366Z,-4.30
2018-03-17T12:22:39.650Z,-4.40
2018-03-17T12:25:07.931Z,-4.70
2018-03-17T12:27:36.222Z,-4.80
2018-03-17T12:30:03.722Z,-4.80
2018-03-17T12:32:31.258Z,-4.80
2018-03-17T12:34:58.780Z,-4.80
2018-03-17T12:37:27.034Z,-4.70
2018-03-17T12:39:54.843Z,-4.70
2018-03-17T12:42:22.363Z,-4.50
2018-03-17T12:44:50.646Z,-4.80
2018-03-17T12:47:18.956Z,-4.70
2018-03-17T12:49:46.445Z,-4.70
2018-03-17T12:52:13.947Z,-4.70
2018-03-17T12:54:42.433Z,-4.70
2018-03-17T12:57:10.690Z,-4.60
2018-03-17T12:59:38.974Z,-4.50
2018-03-17T13:02:07.274Z,-4.50
2018-03-17T13:04:34.821Z,-4.50
2018-03-17T13:07:02.383Z,-4.70
2018-03-17T13:09:29.894Z,-4.60
2018-03-17T13:11:57.435Z,-4.60
2018-03-17T13:14:24.968Z,-4.70
2018-03-17T13:16:52.488Z,-4.80
2018-03-17T13:19:31.714Z,-4.90
2018-03-17T13:21:59.217Z,-4.80
2018-03-17T13:24:26.745Z,-4.90
2018-03-17T13:27:06.928Z,-4.80
2018-03-17T13:29:34.421Z,-4.80
2018-03-17T13:32:01.940Z,-4.70
2018-03-17T13:34:29.510Z,-4.50
2018-03-17T13:37:08.984Z,-4.60
2018-03-17T13:39:36.851Z,-4.70
2018-03-17T13:42:07.585Z,-4.90
2018-03-17T13:44:35.106Z,-4.90
2018-03-17T13:47:02.643Z,-4.80
2018-03-17T13:49:30.156Z,-4.90
2018-03-17T13:51:57.661Z,-4.90
2018-03-17T13:54:25.414Z,-4.90
2018-03-17T13:56:53.720Z,-5.00
2018-03-17T13:59:21.387Z,-5.00
2018-03-17T14:01:49.298Z,-4.90
2018-03-17T14:04:16.810Z,-4.90
2018-03-17T14:06:44.319Z,-5.00
2018-03-17T14:09:12.642Z,-4.90
2018-03-17T14:11:40.156Z,-4.90
2018-03-17T14:14:08.426Z,-5.10
2018-03-17T14:16:35.973Z,-5.10
2018-03-17T14:19:03.505Z,-5.10
2018-03-17T14:21:31.069Z,-5.10
2018-03-17T14:23:58.617Z,-5.10
2018-03-17T14:26:26.128Z,-5.10
2018-03-17T14:28:54.400Z,-5.20
2018-03-17T14:31:22.012Z,-5.20
2018-03-17T14:33:49.527Z,-5.30
2018-03-17T14:36:17.811Z,-5.30
2018-03-17T14:38:45.638Z,-5.30
2018-03-17T14:41:13.126Z,-5.20
2018-03-17T14:43:41.415Z,-5.30
2018-03-17T14:46:08.947Z,-5.30
2018-03-17T14:48:36.460Z,-5.30
2018-03-17T14:51:03.982Z,-5.30
2018-03-17T14:53:32.248Z,-5.40
2018-03-17T14:56:00.547Z,-5.40
2018-03-17T14:58:28.076Z,-5.50
2018-03-17T15:00:55.601Z,-5.50
2018-03-17T15:03:23.120Z,-5.40
2018-03-17T15:05:50.660Z,-5.40
2018-03-17T15:08:19.632Z,-5.40
2018-03-17T15:10:47.123Z,-5.40
2018-03-17T15:13:14.716Z,-5.40
2018-03-17T15:15:42.214Z,-5.40
2018-03-17T15:18:09.729Z,-5.50
2018-03-17T15:20:37.376Z,-5.60
2018-03-17T15:23:04.893Z,-5.50
2018-03-17T15:25:34.172Z,-5.50
2018-03-17T15:28:01.712Z,-5.50
2018-03-17T15:30:29.216Z,-5.50
2018-03-17T15:32:57.485Z,-5.50
2018-03-17T15:35:25.774Z,-5.60
2018-03-17T15:37:54.062Z,-5.60
2018-03-17T15:40:21.576Z,-5.60
2018-03-17T15:42:49.099Z,-5.60
2018-03-17T15:45:16.628Z,-5.70
2018-03-17T15:47:44.898Z,-5.70
2018-03-17T15:50:13.427Z,-5.80
2018-03-17T15:52:40.926Z,-5.80
2018-03-17T15:55:08.427Z,-5.80
2018-03-17T15:57:36.178Z,-5.80
2018-03-17T16:00:03.723Z,-5.90
2018-03-17T16:02:31.236Z,-5.90
2018-03-17T16:04:58.766Z,-5.90
2018-03-17T16:07:26.273Z,-5.90
2018-03-17T16:09:53.800Z,-6.00
2018-03-17T16:12:21.371Z,-6.00
2018-03-17T16:14:49.135Z,-6.10
2018-03-17T16:17:16.651Z,-6.10
2018-03-17T16:19:44.183Z,-6.10
2018-03-17T16:22:12.487Z,-6.00
2018-03-17T16:24:40.055Z,-6.10
2018-03-17T16:27:08.305Z,-6.10
2018-03-17T16:29:35.853Z,-6.10
2018-03-17T16:32:04.106Z,-6.20
2018-03-17T16:34:31.613Z,-6.20
2018-03-17T16:36:59.141Z,-6.20
2018-03-17T16:39:27.404Z,-6.20
2018-03-17T16:41:54.910Z,-6.20
2018-03-17T16:44:22.418Z,-6.20
2018-03-17T16:46:50.271Z,-6.20
2018-03-17T16:49:17.788Z,-6.30
2018-03-17T16:51:45.307Z,-6.20
2018-03-17T16:54:13.487Z,-6.20
2018-03-17T16:56:41.782Z,-6.20
2018-03-17T16:59:09.291Z,-6.20
2018-03-17T17:01:36.810Z,-6.20
2018-03-17T17:04:04.307Z,-6.20
2018-03-17T17:06:31.794Z,-6.30
2018-03-17T17:09:01.004Z,-6.20
2018-03-17T17:11:29.274Z,-6.30
2018-03-17T17:13:57.544Z,-6.30
2018-03-17T17:16:25.826Z,-6.40
2018-03-17T17:18:54.096Z,-6.30
2018-03-17T17:21:22.358Z,-6.30
2018-03-17T17:23:49.885Z,-6.40
2018-03-17T17:26:17.395Z,-6.30
2018-03-17T17:28:45.700Z,-6.30
2018-03-17T17:31:13.215Z,-6.30
2018-03-17T17:33:40.698Z,-6.30
2018-03-17T17:36:08.284Z,-6.30
2018-03-17T17:38:35.818Z,-6.40
2018-03-17T17:41:03.318Z,-6.30
2018-03-17T17:43:30.814Z,-6.30
2018-03-17T17:45:59.195Z,-6.40
2018-03-17T17:48:26.630Z,-6.40
2018-03-17T17:50:54.119Z,-6.30
2018-03-17T17:53:21.622Z,-6.30
2018-03-17T17:55:49.902Z,-6.30
2018-03-17T17:58:17.401Z,-6.40
2018-03-17T18:00:45.675Z,-6.30
2018-03-17T18:03:13.932Z,-6.30
2018-03-17T18:05:41.463Z,-6.30
2018-03-17T18:08:08.954Z,-6.30
2018-03-17T18:10:36.461Z,-6.30
2018-03-17T18:13:04.003Z,-6.30
2018-03-17T18:15:31.496Z,-6.30
2018-03-17T18:17:59.009Z,-6.20
2018-03-17T18:20:27.325Z,-6.30
2018-03-17T18:22:54.847Z,-6.30
2018-03-17T18:25:22.354Z,-6.30
2018-03-17T18:27:49.875Z,-6.30
2018-03-17T18:30:17.447Z,-6.30
2018-03-17T18:32:44.991Z,-6.20
2018-03-17T18:35:12.798Z,-6.20
2018-03-17T18:37:40.306Z,-6.20
2018-03-17T18:40:07.862Z,-6.20
2018-03-17T18:42:35.393Z,-6.20
2018-03-17T18:45:03.712Z,-6.20
2018-03-17T18:47:31.228Z,-6.20
2018-03-17T18:49:59.502Z,-6.20
2018-03-17T18:52:27.063Z,-6.20
2018-03-17T18:54:54.609Z,-6.20
2018-03-17T18:57:22.119Z,-6.20
2018-03-17T18:59:49.650Z,-6.20
2018-03-17T19:02:17.926Z,-6.10
2018-03-17T19:04:46.482Z,-6.20
2018-03-17T19:07:14.024Z,-6.20
2018-03-17T19:09:42.587Z,-6.20
2018-03-17T19:12:10.110Z,-6.20
2018-03-17T19:14:38.396Z,-6.20
2018-03-17T19:17:05.904Z,-6.20
2018-03-17T19:19:33.404Z,-6.20
2018-03-17T19:22:01.683Z,-6.20
2018-03-17T19:24:29.214Z,-6.20
2018-03-17T19:26:57.507Z,-6.20
2018-03-17T19:29:25.036Z,-6.20
2018-03-17T19:31:52.536Z,-6.20
2018-03-17T19:34:20.050Z,-6.10
2018-03-17T19:36:47.665Z,-6.20
2018-03-17T19:39:15.182Z,-6.20
2018-03-17T19:41:43.466Z,-6.20
2018-03-17T19:44:11.010Z,-6.20
2018-03-17T19:46:38.530Z,-6.20
2018-03-17T19:49:06.047Z,-6.30
2018-03-17T19:51:34.359Z,-6.30
2018-03-17T19:54:01.903Z,-6.30
2018-03-17T19:56:29.443Z,-6.20
2018-03-17T19:58:57.787Z,-6.30
2018-03-17T20:01:25.319Z,-6.30
2018-03-17T20:03:53.581Z,-6.30
2018-03-17T20:06:22.050Z,-6.30
2018-03-17T20:08:49.583Z,-6.20
2018-03-17T20:11:17.078Z,-6.20
2018-03-17T20:13:44.619Z,-6.20
2018-03-17T20:16:12.913Z,-6.20
2018-03-17T20:18:40.406Z,-6.20
2018-03-17T20:21:07.919Z,-6.30
2018-03-17T20:23:35.404Z,-6.30
2018-03-17T20:26:02.919Z,-6.30
2018-03-17T20:28:30.403Z,-6.30
2018-03-17T20:30:57.897Z,-6.30
2018-03-17T20:33:25.382Z,-6.30
2018-03-17T20:35:53.655Z,-6.30
2018-03-17T20:38:21.910Z,-6.30
2018-03-17T20:40:49.395Z,-6.30
2018-03-17T20:43:17.707Z,-6.30
2018-03-17T20:45:45.222Z,-6.30
2018-03-17T20:48:12.709Z,-6.30
2018-03-17T20:50:40.214Z,-6.30
2018-03-17T20:53:07.698Z,-6.30
2018-03-17T20:55:35.966Z,-6.30
2018-03-17T20:58:03.541Z,-6.30
2018-03-17T21:00:30.973Z,-6.30
2018-03-17T21:02:58.454Z,-6.20
2018-03-17T21:05:26.722Z,-6.30
2018-03-17T21:07:54.970Z,-6.30
2018-03-17T21:10:22.458Z,-6.30
2018-03-17T21:12:50.733Z,-6.30
2018-03-17T21:15:18.977Z,-6.40
2018-03-17T21:17:46.459Z,-6.40
2018-03-17T21:20:14.733Z,-6.40
2018-03-17T21:22:42.216Z,-6.30
2018-03-17T21:25:09.705Z,-6.30
2018-03-17T21:27:37.210Z,-6.30
2018-03-17T21:30:05.475Z,-6.30
2018-03-17T21:32:32.967Z,-6.40
2018-03-17T21:35:00.490Z,-6.40
2018-03-17T21:37:27.974Z,-6.30
2018-03-17T21:39:55.454Z,-6.30
2018-03-17T21:42:22.960Z,-6.40
2018-03-17T21:44:50.490Z,-6.30
2018-03-17T21:47:17.982Z,-6.30
2018-03-17T21:49:45.493Z,-6.30
2018-03-17T21:52:12.986Z,-6.30
2018-03-17T21:54:40.470Z,-6.30
2018-03-17T21:57:08.755Z,-6.30
2018-03-17T21:59:36.262Z,-6.30
2018-03-17T22:02:03.751Z,-6.30
2018-03-17T22:04:32.032Z,-6.30
2018-03-17T22:07:00.282Z,-6.20
2018-03-17T22:09:27.766Z,-6.30
2018-03-17T22:11:56.030Z,-6.30
2018-03-17T22:14:24.286Z,-6.30
2018-03-17T22:16:51.766Z,-6.30
2018-03-17T22:19:20.042Z,-6.30
2018-03-17T22:21:48.302Z,-6.30
2018-03-17T22:24:15.797Z,-6.40
2018-03-17T22:26:43.301Z,-6.40
2018-03-17T22:29:10.783Z,-6.40
2018-03-17T22:31:38.270Z,-6.40
2018-03-17T22:34:05.778Z,-6.50
2018-03-17T22:36:33.258Z,-6.40
2018-03-17T22:39:00.738Z,-6.40
2018-03-17T22:41:28.450Z,-6.40
2018-03-17T22:43:55.950Z,-6.40
2018-03-17T22:46:24.195Z,-6.40
2018-03-17T22:48:51.697Z,-6.50
2018-03-17T22:51:19.183Z,-6.40
2018-03-17T22:53:46.681Z,-6.40
2018-03-17T22:56:14.161Z,-6.40
2018-03-17T22:58:41.647Z,-6.40
2018-03-17T23:01:09.158Z,-6.40
2018-03-17T23:03:37.418Z,-6.40
2018-03-17T23:06:04.909Z,-6.40
2018-03-17T23:08:32.422Z,-6.40
2018-03-17T23:10:59.923Z,-6.40
2018-03-17T23:13:28.174Z,-6.40
2018-03-17T23:15:55.674Z,-6.40
2018-03-17T23:18:23.154Z,-6.50
2018-03-17T23:20:50.662Z,-6.40
2018-03-17T23:23:18.916Z,-6.40
2018-03-17T23:25:46.406Z,-6.40
2018-03-17T23:28:13.967Z,-6.40
2018-03-17T23:30:41.574Z,-6.40
2018-03-17T23:33:09.060Z,-6.40
2018-03-17T23:35:36.558Z,-6.40
2018-03-17T23:38:04.062Z,-6.40
2018-03-17T23:40:31.566Z,-6.30
2018-03-17T23:42:59.079Z,-6.30
2018-03-17T23:45:26.567Z,-6.30
2018-03-17T23:47:54.827Z,-6.40
2018-03-17T23:50:23.098Z,-6.30
2018-03-17T23:52:50.587Z,-6.40
2018-03-17T23:55:18.100Z,-6.30
2018-03-17T23:57:45.590Z,-6.30
